sensor_id;sensor_type;location;lat;lon;timestamp;P1;durP1;ratioP1;P2;durP2;ratioP2
10343;SDS011;5217;43.960;10.954;2023-07-13T01:28:47;8.30;;;4.43;;
10343;SDS011;5217;43.960;10.954;2023-07-13T01:31:16;6.85;;;4.00;;
10343;SDS011;5217;43.960;10.954;2023-07-13T01:33:44;8.10;;;4.43;;
10343;SDS011;5217;43.960;10.954;2023-07-13T01:36:12;9.73;;;4.38;;
10343;SDS011;5217;43.960;10.954;2023-07-13T01:38:41;10.60;;;4.00;;
10343;SDS011;5217;43.960;10.954;2023-07-13T01:41:10;9.00;;;4.18;;
10343;SDS011;5217;43.960;10.954;2023-07-13T01:43:38;9.43;;;4.18;;
10343;SDS011;5217;43.960;10.954;2023-07-13T01:46:08;9.70;;;4.20;;
10343;SDS011;5217;43.960;10.954;2023-07-13T01:48:49;13.05;;;4.55;;
10343;SDS011;5217;43.960;10.954;2023-07-13T01:51:19;10.27;;;4.38;;
10343;SDS011;5217;43.960;10.954;2023-07-13T01:53:48;8.27;;;3.78;;
10343;SDS011;5217;43.960;10.954;2023-07-13T01:56:16;13.05;;;4.43;;
10343;SDS011;5217;43.960;10.954;2023-07-13T01:58:45;8.10;;;4.63;;
10343;SDS011;5217;43.960;10.954;2023-07-13T02:01:15;10.07;;;4.63;;
10343;SDS011;5217;43.960;10.954;2023-07-13T02:03:43;12.40;;;4.43;;
10343;SDS011;5217;43.960;10.954;2023-07-13T02:06:13;9.13;;;3.97;;
10343;SDS011;5217;43.960;10.954;2023-07-13T02:08:41;9.65;;;4.38;;
10343;SDS011;5217;43.960;10.954;2023-07-13T02:11:10;10.45;;;4.53;;
10343;SDS011;5217;43.960;10.954;2023-07-13T02:13:38;8.38;;;4.25;;
10343;SDS011;5217;43.960;10.954;2023-07-13T02:16:06;7.65;;;3.83;;
10343;SDS011;5217;43.960;10.954;2023-07-13T02:18:37;11.70;;;4.13;;
10343;SDS011;5217;43.960;10.954;2023-07-13T02:21:05;9.07;;;3.55;;
10343;SDS011;5217;43.960;10.954;2023-07-13T02:23:34;6.45;;;3.90;;
10343;SDS011;5217;43.960;10.954;2023-07-13T02:26:03;7.50;;;3.88;;
10343;SDS011;5217;43.960;10.954;2023-07-13T02:28:32;11.13;;;4.13;;
10343;SDS011;5217;43.960;10.954;2023-07-13T02:31:06;8.40;;;3.55;;
10343;SDS011;5217;43.960;10.954;2023-07-13T02:33:37;6.65;;;3.50;;
10343;SDS011;5217;43.960;10.954;2023-07-13T02:36:06;11.68;;;4.10;;
10343;SDS011;5217;43.960;10.954;2023-07-13T02:38:35;5.47;;;3.53;;
10343;SDS011;5217;43.960;10.954;2023-07-13T02:41:04;6.30;;;3.53;;
10343;SDS011;5217;43.960;10.954;2023-07-13T02:43:33;8.27;;;4.00;;
10343;SDS011;5217;43.960;10.954;2023-07-13T02:46:02;8.85;;;3.90;;
10343;SDS011;5217;43.960;10.954;2023-07-13T02:48:34;7.53;;;4.38;;
10343;SDS011;5217;43.960;10.954;2023-07-13T02:51:06;5.78;;;3.65;;
10343;SDS011;5217;43.960;10.954;2023-07-13T02:53:35;7.60;;;3.88;;
10343;SDS011;5217;43.960;10.954;2023-07-13T02:56:03;7.95;;;4.03;;
10343;SDS011;5217;43.960;10.954;2023-07-13T02:58:34;5.75;;;3.55;;
10343;SDS011;5217;43.960;10.954;2023-07-13T03:01:08;6.53;;;3.53;;
10343;SDS011;5217;43.960;10.954;2023-07-13T03:03:39;7.68;;;3.70;;
10343;SDS011;5217;43.960;10.954;2023-07-13T03:06:08;5.60;;;3.53;;
10343;SDS011;5217;43.960;10.954;2023-07-13T03:08:37;7.35;;;3.88;;
10343;SDS011;5217;43.960;10.954;2023-07-13T03:11:06;6.05;;;3.67;;
10343;SDS011;5217;43.960;10.954;2023-07-13T03:13:37;5.97;;;3.60;;
10343;SDS011;5217;43.960;10.954;2023-07-13T03:16:06;6.22;;;3.55;;
10343;SDS011;5217;43.960;10.954;2023-07-13T03:18:36;8.73;;;3.67;;
10343;SDS011;5217;43.960;10.954;2023-07-13T03:21:06;8.40;;;4.00;;
10343;SDS011;5217;43.960;10.954;2023-07-13T03:23:34;6.55;;;3.75;;
10343;SDS011;5217;43.960;10.954;2023-07-13T03:26:04;8.63;;;4.03;;
10343;SDS011;5217;43.960;10.954;2023-07-13T03:28:33;6.00;;;3.33;;
10343;SDS011;5217;43.960;10.954;2023-07-13T03:31:02;6.65;;;3.40;;
10343;SDS011;5217;43.960;10.954;2023-07-13T03:33:32;7.00;;;3.50;;
10343;SDS011;5217;43.960;10.954;2023-07-13T03:36:02;6.15;;;3.67;;
10343;SDS011;5217;43.960;10.954;2023-07-13T03:38:32;4.80;;;3.53;;
10343;SDS011;5217;43.960;10.954;2023-07-13T03:41:00;5.53;;;3.53;;
10343;SDS011;5217;43.960;10.954;2023-07-13T03:43:29;6.55;;;3.33;;
10343;SDS011;5217;43.960;10.954;2023-07-13T03:45:57;8.38;;;3.53;;
10343;SDS011;5217;43.960;10.954;2023-07-13T03:48:25;5.80;;;3.38;;
10343;SDS011;5217;43.960;10.954;2023-07-13T03:50:54;7.85;;;3.97;;
10343;SDS011;5217;43.960;10.954;2023-07-13T03:53:22;7.50;;;4.15;;
10343;SDS011;5217;43.960;10.954;2023-07-13T03:55:52;5.40;;;3.67;;
10343;SDS011;5217;43.960;10.954;2023-07-13T03:58:25;7.68;;;3.55;;
10343;SDS011;5217;43.960;10.954;2023-07-13T04:00:56;7.00;;;3.42;;
10343;SDS011;5217;43.960;10.954;2023-07-13T04:03:25;4.93;;;3.50;;
10343;SDS011;5217;43.960;10.954;2023-07-13T04:05:55;6.28;;;3.58;;
10343;SDS011;5217;43.960;10.954;2023-07-13T04:08:26;7.25;;;3.88;;
10343;SDS011;5217;43.960;10.954;2023-07-13T04:10:55;5.60;;;3.40;;
10343;SDS011;5217;43.960;10.954;2023-07-13T04:13:24;4.90;;;3.45;;
10343;SDS011;5217;43.960;10.954;2023-07-13T04:15:53;4.90;;;3.78;;
10343;SDS011;5217;43.960;10.954;2023-07-13T04:18:22;5.57;;;3.30;;
10343;SDS011;5217;43.960;10.954;2023-07-13T04:20:51;5.82;;;3.20;;
10343;SDS011;5217;43.960;10.954;2023-07-13T04:23:19;7.38;;;3.60;;
10343;SDS011;5217;43.960;10.954;2023-07-13T04:25:48;4.90;;;3.17;;
10343;SDS011;5217;43.960;10.954;2023-07-13T04:28:20;6.80;;;3.60;;
10343;SDS011;5217;43.960;10.954;2023-07-13T04:30:50;6.43;;;3.42;;
10343;SDS011;5217;43.960;10.954;2023-07-13T04:33:19;6.30;;;3.47;;
10343;SDS011;5217;43.960;10.954;2023-07-13T04:35:49;6.50;;;3.40;;
10343;SDS011;5217;43.960;10.954;2023-07-13T04:38:23;4.05;;;3.17;;
10343;SDS011;5217;43.960;10.954;2023-07-13T04:40:54;6.85;;;3.53;;
10343;SDS011;5217;43.960;10.954;2023-07-13T04:43:25;7.10;;;3.58;;
10343;SDS011;5217;43.960;10.954;2023-07-13T04:45:55;4.47;;;3.60;;
10343;SDS011;5217;43.960;10.954;2023-07-13T04:48:24;7.25;;;3.55;;
10343;SDS011;5217;43.960;10.954;2023-07-13T04:50:56;4.68;;;3.10;;
10343;SDS011;5217;43.960;10.954;2023-07-13T04:53:25;4.68;;;3.63;;
10343;SDS011;5217;43.960;10.954;2023-07-13T04:55:55;7.07;;;3.53;;
10343;SDS011;5217;43.960;10.954;2023-07-13T04:58:26;4.55;;;3.50;;
10343;SDS011;5217;43.960;10.954;2023-07-13T05:00:59;4.78;;;3.15;;
10343;SDS011;5217;43.960;10.954;2023-07-13T05:03:28;5.93;;;3.47;;
10343;SDS011;5217;43.960;10.954;2023-07-13T05:05:57;6.00;;;3.72;;
10343;SDS011;5217;43.960;10.954;2023-07-13T05:08:27;4.95;;;3.20;;
10343;SDS011;5217;43.960;10.954;2023-07-13T05:10:55;4.80;;;3.50;;
10343;SDS011;5217;43.960;10.954;2023-07-13T05:13:23;5.00;;;3.20;;
10343;SDS011;5217;43.960;10.954;2023-07-13T05:15:56;4.90;;;3.22;;
10343;SDS011;5217;43.960;10.954;2023-07-13T05:18:25;6.55;;;3.40;;
10343;SDS011;5217;43.960;10.954;2023-07-13T05:20:57;5.72;;;3.30;;
10343;SDS011;5217;43.960;10.954;2023-07-13T05:23:27;6.25;;;3.55;;
10343;SDS011;5217;43.960;10.954;2023-07-13T05:25:56;6.80;;;3.60;;
10343;SDS011;5217;43.960;10.954;2023-07-13T05:28:26;5.75;;;3.30;;
10343;SDS011;5217;43.960;10.954;2023-07-13T05:30:56;5.47;;;3.17;;
10343;SDS011;5217;43.960;10.954;2023-07-13T05:33:25;5.15;;;3.28;;
10343;SDS011;5217;43.960;10.954;2023-07-13T05:35:53;20.58;;;4.63;;
10343;SDS011;5217;43.960;10.954;2023-07-13T05:38:22;12.93;;;3.60;;
10343;SDS011;5217;43.960;10.954;2023-07-13T05:40:51;6.75;;;3.80;;
10343;SDS011;5217;43.960;10.954;2023-07-13T05:43:21;5.90;;;3.25;;
10343;SDS011;5217;43.960;10.954;2023-07-13T05:45:52;6.28;;;3.58;;
10343;SDS011;5217;43.960;10.954;2023-07-13T05:48:21;11.82;;;3.90;;
10343;SDS011;5217;43.960;10.954;2023-07-13T05:50:50;8.70;;;3.53;;
10343;SDS011;5217;43.960;10.954;2023-07-13T05:53:18;6.38;;;3.33;;
10343;SDS011;5217;43.960;10.954;2023-07-13T05:55:47;5.72;;;3.50;;
10343;SDS011;5217;43.960;10.954;2023-07-13T05:58:16;5.85;;;3.42;;
10343;SDS011;5217;43.960;10.954;2023-07-13T06:00:45;5.03;;;3.40;;
10343;SDS011;5217;43.960;10.954;2023-07-13T06:03:15;5.00;;;3.28;;
10343;SDS011;5217;43.960;10.954;2023-07-13T06:05:44;5.72;;;3.05;;
10343;SDS011;5217;43.960;10.954;2023-07-13T06:08:12;4.93;;;3.25;;
10343;SDS011;5217;43.960;10.954;2023-07-13T06:10:40;7.75;;;3.60;;
10343;SDS011;5217;43.960;10.954;2023-07-13T06:13:09;5.05;;;3.38;;
10343;SDS011;5217;43.960;10.954;2023-07-13T06:15:37;5.47;;;3.40;;
10343;SDS011;5217;43.960;10.954;2023-07-13T06:18:05;5.65;;;3.72;;
10343;SDS011;5217;43.960;10.954;2023-07-13T06:20:35;5.32;;;3.50;;
10343;SDS011;5217;43.960;10.954;2023-07-13T06:23:03;5.03;;;3.22;;
10343;SDS011;5217;43.960;10.954;2023-07-13T06:25:32;5.68;;;3.40;;
10343;SDS011;5217;43.960;10.954;2023-07-13T06:28:00;7.82;;;3.80;;
10343;SDS011;5217;43.960;10.954;2023-07-13T06:30:29;7.65;;;3.40;;
10343;SDS011;5217;43.960;10.954;2023-07-13T06:32:58;6.50;;;3.50;;
10343;SDS011;5217;43.960;10.954;2023-07-13T06:35:27;25.27;;;4.32;;
10343;SDS011;5217;43.960;10.954;2023-07-13T06:37:57;30.92;;;4.50;;
10343;SDS011;5217;43.960;10.954;2023-07-13T06:40:25;9.57;;;4.10;;
10343;SDS011;5217;43.960;10.954;2023-07-13T06:42:55;7.25;;;3.65;;
10343;SDS011;5217;43.960;10.954;2023-07-13T06:45:23;6.15;;;3.80;;
10343;SDS011;5217;43.960;10.954;2023-07-13T06:47:52;6.78;;;3.42;;
10343;SDS011;5217;43.960;10.954;2023-07-13T06:50:20;5.88;;;3.20;;
10343;SDS011;5217;43.960;10.954;2023-07-13T06:52:48;6.15;;;3.63;;
10343;SDS011;5217;43.960;10.954;2023-07-13T06:55:18;4.45;;;3.25;;
10343;SDS011;5217;43.960;10.954;2023-07-13T06:57:47;6.95;;;3.33;;
10343;SDS011;5217;43.960;10.954;2023-07-13T07:00:15;8.80;;;3.80;;
10343;SDS011;5217;43.960;10.954;2023-07-13T07:02:44;6.40;;;3.55;;
10343;SDS011;5217;43.960;10.954;2023-07-13T07:05:12;5.18;;;3.10;;
10343;SDS011;5217;43.960;10.954;2023-07-13T07:07:41;8.65;;;3.55;;
10343;SDS011;5217;43.960;10.954;2023-07-13T07:10:10;24.67;;;4.60;;
10343;SDS011;5217;43.960;10.954;2023-07-13T07:12:39;6.82;;;3.42;;
10343;SDS011;5217;43.960;10.954;2023-07-13T07:15:08;6.85;;;3.60;;
10343;SDS011;5217;43.960;10.954;2023-07-13T07:17:37;5.93;;;3.38;;
10343;SDS011;5217;43.960;10.954;2023-07-13T07:20:05;4.00;;;2.80;;
10343;SDS011;5217;43.960;10.954;2023-07-13T07:22:35;4.50;;;2.97;;
10343;SDS011;5217;43.960;10.954;2023-07-13T07:25:05;3.72;;;3.28;;
10343;SDS011;5217;43.960;10.954;2023-07-13T07:27:34;5.88;;;3.38;;
10343;SDS011;5217;43.960;10.954;2023-07-13T07:30:07;5.68;;;3.63;;
10343;SDS011;5217;43.960;10.954;2023-07-13T07:32:39;4.53;;;3.13;;
10343;SDS011;5217;43.960;10.954;2023-07-13T07:35:23;7.47;;;3.40;;
10343;SDS011;5217;43.960;10.954;2023-07-13T07:37:52;4.72;;;3.47;;
10343;SDS011;5217;43.960;10.954;2023-07-13T07:40:20;5.03;;;3.05;;
10343;SDS011;5217;43.960;10.954;2023-07-13T07:42:52;4.38;;;3.20;;
10343;SDS011;5217;43.960;10.954;2023-07-13T07:45:22;6.40;;;3.47;;
10343;SDS011;5217;43.960;10.954;2023-07-13T07:47:50;5.00;;;3.50;;
10343;SDS011;5217;43.960;10.954;2023-07-13T07:50:18;4.63;;;3.42;;
10343;SDS011;5217;43.960;10.954;2023-07-13T07:52:46;4.65;;;3.28;;
10343;SDS011;5217;43.960;10.954;2023-07-13T07:55:15;5.03;;;3.30;;
10343;SDS011;5217;43.960;10.954;2023-07-13T07:57:46;3.75;;;2.97;;
10343;SDS011;5217;43.960;10.954;2023-07-13T08:00:18;7.72;;;3.60;;
10343;SDS011;5217;43.960;10.954;2023-07-13T08:02:52;6.25;;;3.60;;
10343;SDS011;5217;43.960;10.954;2023-07-13T08:05:23;5.45;;;3.30;;
10343;SDS011;5217;43.960;10.954;2023-07-13T08:08:08;5.45;;;3.20;;
10343;SDS011;5217;43.960;10.954;2023-07-13T08:10:36;5.63;;;3.78;;
10343;SDS011;5217;43.960;10.954;2023-07-13T08:13:05;4.88;;;3.47;;
10343;SDS011;5217;43.960;10.954;2023-07-13T08:15:37;6.38;;;3.97;;
10343;SDS011;5217;43.960;10.954;2023-07-13T08:18:08;4.60;;;3.38;;
10343;SDS011;5217;43.960;10.954;2023-07-13T08:20:37;8.57;;;3.58;;
10343;SDS011;5217;43.960;10.954;2023-07-13T08:23:11;10.45;;;3.60;;
10343;SDS011;5217;43.960;10.954;2023-07-13T08:25:39;8.75;;;3.97;;
10343;SDS011;5217;43.960;10.954;2023-07-13T08:28:08;5.70;;;3.63;;
10343;SDS011;5217;43.960;10.954;2023-07-13T08:30:36;5.50;;;3.60;;
10343;SDS011;5217;43.960;10.954;2023-07-13T08:33:05;6.60;;;3.83;;
10343;SDS011;5217;43.960;10.954;2023-07-13T08:35:34;4.68;;;3.60;;
10343;SDS011;5217;43.960;10.954;2023-07-13T08:38:03;5.57;;;3.50;;
10343;SDS011;5217;43.960;10.954;2023-07-13T08:40:31;4.57;;;3.40;;
10343;SDS011;5217;43.960;10.954;2023-07-13T08:43:02;5.18;;;3.72;;
10343;SDS011;5217;43.960;10.954;2023-07-13T08:45:32;4.40;;;3.25;;
10343;SDS011;5217;43.960;10.954;2023-07-13T08:48:08;4.97;;;3.40;;
10343;SDS011;5217;43.960;10.954;2023-07-13T08:50:46;5.60;;;3.35;;
10343;SDS011;5217;43.960;10.954;2023-07-13T08:53:29;5.82;;;3.97;;
10343;SDS011;5217;43.960;10.954;2023-07-13T08:56:01;6.35;;;3.58;;
10343;SDS011;5217;43.960;10.954;2023-07-13T08:58:29;8.07;;;3.88;;
10343;SDS011;5217;43.960;10.954;2023-07-13T09:00:58;7.05;;;3.67;;
10343;SDS011;5217;43.960;10.954;2023-07-13T09:03:36;7.05;;;3.97;;
10343;SDS011;5217;43.960;10.954;2023-07-13T09:06:09;6.07;;;3.80;;
10343;SDS011;5217;43.960;10.954;2023-07-13T09:08:45;6.50;;;3.70;;
10343;SDS011;5217;43.960;10.954;2023-07-13T09:11:28;6.88;;;3.85;;
10343;SDS011;5217;43.960;10.954;2023-07-13T09:14:06;6.43;;;3.50;;
10343;SDS011;5217;43.960;10.954;2023-07-13T09:17:03;4.55;;;3.65;;
10343;SDS011;5217;43.960;10.954;2023-07-13T09:19:33;7.70;;;3.88;;
10343;SDS011;5217;43.960;10.954;2023-07-13T09:22:05;5.10;;;3.40;;
10343;SDS011;5217;43.960;10.954;2023-07-13T09:24:46;7.95;;;3.83;;
10343;SDS011;5217;43.960;10.954;2023-07-13T09:27:21;5.90;;;3.60;;
10343;SDS011;5217;43.960;10.954;2023-07-13T09:29:54;7.55;;;4.22;;
10343;SDS011;5217;43.960;10.954;2023-07-13T09:32:32;7.63;;;4.30;;
10343;SDS011;5217;43.960;10.954;2023-07-13T09:35:01;7.00;;;4.05;;
10343;SDS011;5217;43.960;10.954;2023-07-13T09:37:40;9.25;;;3.85;;
10343;SDS011;5217;43.960;10.954;2023-07-13T09:40:13;7.40;;;4.18;;
10343;SDS011;5217;43.960;10.954;2023-07-13T09:42:50;6.15;;;4.13;;
10343;SDS011;5217;43.960;10.954;2023-07-13T09:45:26;4.55;;;3.67;;
10343;SDS011;5217;43.960;10.954;2023-07-13T09:47:59;6.88;;;3.88;;
10343;SDS011;5217;43.960;10.954;2023-07-13T09:50:31;7.22;;;4.30;;
10343;SDS011;5217;43.960;10.954;2023-07-13T09:53:01;6.22;;;4.03;;
10343;SDS011;5217;43.960;10.954;2023-07-13T09:55:31;6.38;;;3.83;;
10343;SDS011;5217;43.960;10.954;2023-07-13T09:58:04;7.97;;;3.80;;
10343;SDS011;5217;43.960;10.954;2023-07-13T10:00:37;9.80;;;4.03;;
10343;SDS011;5217;43.960;10.954;2023-07-13T10:03:14;7.72;;;4.22;;
10343;SDS011;5217;43.960;10.954;2023-07-13T10:05:47;6.15;;;3.90;;
10343;SDS011;5217;43.960;10.954;2023-07-13T10:08:21;5.72;;;3.67;;
10343;SDS011;5217;43.960;10.954;2023-07-13T10:10:54;4.55;;;3.28;;
10343;SDS011;5217;43.960;10.954;2023-07-13T10:13:27;5.55;;;3.40;;
10343;SDS011;5217;43.960;10.954;2023-07-13T10:15:58;5.80;;;3.45;;
10343;SDS011;5217;43.960;10.954;2023-07-13T10:18:28;5.03;;;3.20;;
10343;SDS011;5217;43.960;10.954;2023-07-13T10:21:04;4.90;;;3.05;;
10343;SDS011;5217;43.960;10.954;2023-07-13T10:23:46;5.85;;;3.70;;
10343;SDS011;5217;43.960;10.954;2023-07-13T10:26:29;8.23;;;3.83;;
10343;SDS011;5217;43.960;10.954;2023-07-13T10:29:02;5.82;;;3.60;;
10343;SDS011;5217;43.960;10.954;2023-07-13T10:31:40;6.63;;;3.60;;
10343;SDS011;5217;43.960;10.954;2023-07-13T10:34:10;5.95;;;3.60;;
10343;SDS011;5217;43.960;10.954;2023-07-13T10:36:40;3.92;;;3.00;;
10343;SDS011;5217;43.960;10.954;2023-07-13T10:39:15;5.03;;;3.15;;
10343;SDS011;5217;43.960;10.954;2023-07-13T10:41:46;5.80;;;2.70;;
10343;SDS011;5217;43.960;10.954;2023-07-13T10:44:21;4.97;;;2.67;;
10343;SDS011;5217;43.960;10.954;2023-07-13T10:46:53;4.45;;;2.40;;
10343;SDS011;5217;43.960;10.954;2023-07-13T10:49:25;3.42;;;2.55;;
10343;SDS011;5217;43.960;10.954;2023-07-13T10:51:56;5.60;;;2.90;;
10343;SDS011;5217;43.960;10.954;2023-07-13T10:54:27;5.80;;;3.42;;
10343;SDS011;5217;43.960;10.954;2023-07-13T11:02:43;6.57;;;3.20;;
10343;SDS011;5217;43.960;10.954;2023-07-13T11:05:26;5.47;;;3.15;;
10343;SDS011;5217;43.960;10.954;2023-07-13T11:08:02;8.63;;;3.85;;
10343;SDS011;5217;43.960;10.954;2023-07-13T11:10:48;7.65;;;3.80;;
10343;SDS011;5217;43.960;10.954;2023-07-13T11:16:35;9.25;;;3.78;;
10343;SDS011;5217;43.960;10.954;2023-07-13T11:19:37;7.93;;;4.60;;
10343;SDS011;5217;43.960;10.954;2023-07-13T11:22:11;7.93;;;3.83;;
10343;SDS011;5217;43.960;10.954;2023-07-13T11:24:48;5.63;;;4.10;;
10343;SDS011;5217;43.960;10.954;2023-07-13T11:27:25;11.45;;;4.80;;
10343;SDS011;5217;43.960;10.954;2023-07-13T11:33:08;8.80;;;4.13;;
10343;SDS011;5217;43.960;10.954;2023-07-13T11:35:43;8.50;;;4.57;;
10343;SDS011;5217;43.960;10.954;2023-07-13T11:38:31;9.77;;;4.57;;
10343;SDS011;5217;43.960;10.954;2023-07-13T11:41:04;6.82;;;4.25;;
10343;SDS011;5217;43.960;10.954;2023-07-13T11:43:35;7.70;;;4.55;;
10343;SDS011;5217;43.960;10.954;2023-07-13T11:46:14;8.73;;;4.57;;
10343;SDS011;5217;43.960;10.954;2023-07-13T11:48:44;11.95;;;4.80;;
10343;SDS011;5217;43.960;10.954;2023-07-13T11:51:17;9.07;;;4.00;;
10343;SDS011;5217;43.960;10.954;2023-07-13T11:53:49;7.47;;;4.10;;
10343;SDS011;5217;43.960;10.954;2023-07-13T11:56:23;6.45;;;3.83;;
10343;SDS011;5217;43.960;10.954;2023-07-13T11:58:54;11.43;;;4.93;;
10343;SDS011;5217;43.960;10.954;2023-07-13T12:01:26;8.85;;;5.03;;
10343;SDS011;5217;43.960;10.954;2023-07-13T12:03:59;8.32;;;4.35;;
10343;SDS011;5217;43.960;10.954;2023-07-13T12:06:30;12.40;;;4.78;;
10343;SDS011;5217;43.960;10.954;2023-07-13T12:08:59;9.00;;;4.63;;
10343;SDS011;5217;43.960;10.954;2023-07-13T12:11:30;9.63;;;4.95;;
10343;SDS011;5217;43.960;10.954;2023-07-13T12:14:12;13.68;;;4.95;;
10343;SDS011;5217;43.960;10.954;2023-07-13T12:16:42;7.45;;;4.70;;
10343;SDS011;5217;43.960;10.954;2023-07-13T12:19:14;9.00;;;4.80;;
10343;SDS011;5217;43.960;10.954;2023-07-13T12:21:48;11.23;;;4.72;;
10343;SDS011;5217;43.960;10.954;2023-07-13T12:24:19;11.88;;;4.72;;
10343;SDS011;5217;43.960;10.954;2023-07-13T12:26:52;10.18;;;5.35;;
10343;SDS011;5217;43.960;10.954;2023-07-13T12:29:23;9.60;;;4.82;;
10343;SDS011;5217;43.960;10.954;2023-07-13T12:31:52;11.55;;;4.75;;
10343;SDS011;5217;43.960;10.954;2023-07-13T12:34:23;8.07;;;4.45;;
10343;SDS011;5217;43.960;10.954;2023-07-13T12:36:53;8.18;;;3.90;;
10343;SDS011;5217;43.960;10.954;2023-07-13T12:39:24;7.82;;;4.22;;
10343;SDS011;5217;43.960;10.954;2023-07-13T12:42:09;8.38;;;4.22;;
10343;SDS011;5217;43.960;10.954;2023-07-13T12:44:48;12.75;;;5.40;;
10343;SDS011;5217;43.960;10.954;2023-07-13T12:47:17;9.95;;;5.15;;
10343;SDS011;5217;43.960;10.954;2023-07-13T12:49:50;9.38;;;4.60;;
10343;SDS011;5217;43.960;10.954;2023-07-13T12:52:23;8.77;;;4.32;;
10343;SDS011;5217;43.960;10.954;2023-07-13T12:54:58;7.97;;;4.50;;
10343;SDS011;5217;43.960;10.954;2023-07-13T12:57:37;11.13;;;5.28;;
10343;SDS011;5217;43.960;10.954;2023-07-13T13:00:24;12.85;;;5.00;;
10343;SDS011;5217;43.960;10.954;2023-07-13T13:03:02;8.13;;;4.97;;
10343;SDS011;5217;43.960;10.954;2023-07-13T13:05:56;11.40;;;5.15;;
10343;SDS011;5217;43.960;10.954;2023-07-13T13:08:26;8.82;;;4.97;;
10343;SDS011;5217;43.960;10.954;2023-07-13T13:10:55;10.32;;;4.80;;
10343;SDS011;5217;43.960;10.954;2023-07-13T13:13:23;7.28;;;4.57;;
10343;SDS011;5217;43.960;10.954;2023-07-13T13:15:53;15.88;;;5.72;;
10343;SDS011;5217;43.960;10.954;2023-07-13T13:18:23;11.95;;;5.50;;
10343;SDS011;5217;43.960;10.954;2023-07-13T13:20:52;14.88;;;5.70;;
10343;SDS011;5217;43.960;10.954;2023-07-13T13:23:20;11.80;;;5.78;;
10343;SDS011;5217;43.960;10.954;2023-07-13T13:25:50;10.80;;;4.88;;
10343;SDS011;5217;43.960;10.954;2023-07-13T13:28:20;12.75;;;5.38;;
10343;SDS011;5217;43.960;10.954;2023-07-13T13:30:49;9.00;;;4.65;;
10343;SDS011;5217;43.960;10.954;2023-07-13T13:33:20;9.05;;;4.90;;
10343;SDS011;5217;43.960;10.954;2023-07-13T13:35:49;11.75;;;5.35;;
10343;SDS011;5217;43.960;10.954;2023-07-13T13:38:19;8.73;;;4.80;;
10343;SDS011;5217;43.960;10.954;2023-07-13T13:40:50;16.10;;;5.90;;
10343;SDS011;5217;43.960;10.954;2023-07-13T13:43:20;15.73;;;5.70;;
10343;SDS011;5217;43.960;10.954;2023-07-13T13:45:53;21.08;;;6.53;;
10343;SDS011;5217;43.960;10.954;2023-07-13T13:48:31;18.95;;;6.30;;
10343;SDS011;5217;43.960;10.954;2023-07-13T13:51:01;17.95;;;6.30;;
10343;SDS011;5217;43.960;10.954;2023-07-13T13:53:41;16.08;;;6.13;;
10343;SDS011;5217;43.960;10.954;2023-07-13T13:56:10;14.77;;;6.07;;
10343;SDS011;5217;43.960;10.954;2023-07-13T13:58:39;14.60;;;6.03;;
10343;SDS011;5217;43.960;10.954;2023-07-13T14:01:11;23.77;;;7.22;;
10343;SDS011;5217;43.960;10.954;2023-07-13T14:03:42;13.02;;;5.28;;
10343;SDS011;5217;43.960;10.954;2023-07-13T14:06:11;15.80;;;5.75;;
10343;SDS011;5217;43.960;10.954;2023-07-13T14:08:41;23.48;;;6.05;;
10343;SDS011;5217;43.960;10.954;2023-07-13T14:11:10;16.65;;;6.30;;
10343;SDS011;5217;43.960;10.954;2023-07-13T14:13:40;19.77;;;6.50;;
10343;SDS011;5217;43.960;10.954;2023-07-13T14:16:14;19.98;;;6.00;;
10343;SDS011;5217;43.960;10.954;2023-07-13T14:18:46;17.73;;;6.70;;
10343;SDS011;5217;43.960;10.954;2023-07-13T14:21:17;13.85;;;5.78;;
10343;SDS011;5217;43.960;10.954;2023-07-13T14:23:47;19.83;;;6.65;;
10343;SDS011;5217;43.960;10.954;2023-07-13T14:26:17;20.83;;;6.80;;
10343;SDS011;5217;43.960;10.954;2023-07-13T14:28:48;19.27;;;6.65;;
10343;SDS011;5217;43.960;10.954;2023-07-13T14:31:18;14.27;;;5.82;;
10343;SDS011;5217;43.960;10.954;2023-07-13T14:33:51;18.20;;;6.20;;
10343;SDS011;5217;43.960;10.954;2023-07-13T14:36:21;13.15;;;5.85;;
10343;SDS011;5217;43.960;10.954;2023-07-13T14:38:55;11.48;;;5.55;;
10343;SDS011;5217;43.960;10.954;2023-07-13T14:41:25;13.73;;;5.60;;
10343;SDS011;5217;43.960;10.954;2023-07-13T14:43:54;18.52;;;6.20;;
10343;SDS011;5217;43.960;10.954;2023-07-13T14:46:26;18.52;;;6.00;;
10343;SDS011;5217;43.960;10.954;2023-07-13T14:49:00;15.48;;;5.72;;
10343;SDS011;5217;43.960;10.954;2023-07-13T14:51:31;10.50;;;5.25;;
10343;SDS011;5217;43.960;10.954;2023-07-13T14:54:02;8.20;;;4.78;;
10343;SDS011;5217;43.960;10.954;2023-07-13T14:56:32;8.90;;;4.60;;
10343;SDS011;5217;43.960;10.954;2023-07-13T14:59:00;11.98;;;4.93;;
10343;SDS011;5217;43.960;10.954;2023-07-13T15:01:29;18.30;;;5.45;;
10343;SDS011;5217;43.960;10.954;2023-07-13T15:03:59;17.85;;;6.45;;
10343;SDS011;5217;43.960;10.954;2023-07-13T15:06:28;14.75;;;5.75;;
10343;SDS011;5217;43.960;10.954;2023-07-13T15:08:58;13.77;;;5.47;;
10343;SDS011;5217;43.960;10.954;2023-07-13T15:11:30;12.13;;;5.40;;
10343;SDS011;5217;43.960;10.954;2023-07-13T15:13:58;12.35;;;5.35;;
10343;SDS011;5217;43.960;10.954;2023-07-13T15:16:27;15.25;;;4.90;;
10343;SDS011;5217;43.960;10.954;2023-07-13T15:18:56;11.45;;;4.72;;
10343;SDS011;5217;43.960;10.954;2023-07-13T15:21:27;12.52;;;5.05;;
10343;SDS011;5217;43.960;10.954;2023-07-13T15:24:00;13.02;;;5.15;;
10343;SDS011;5217;43.960;10.954;2023-07-13T15:26:30;20.77;;;6.30;;
10343;SDS011;5217;43.960;10.954;2023-07-13T15:28:59;17.10;;;5.65;;
10343;SDS011;5217;43.960;10.954;2023-07-13T15:31:29;14.68;;;5.68;;
10343;SDS011;5217;43.960;10.954;2023-07-13T15:33:58;14.50;;;5.35;;
10343;SDS011;5217;43.960;10.954;2023-07-13T15:36:29;12.02;;;4.80;;
10343;SDS011;5217;43.960;10.954;2023-07-13T15:39:00;15.32;;;5.32;;
10343;SDS011;5217;43.960;10.954;2023-07-13T15:41:28;10.38;;;4.78;;
10343;SDS011;5217;43.960;10.954;2023-07-13T15:43:59;15.18;;;5.10;;
10343;SDS011;5217;43.960;10.954;2023-07-13T15:46:32;14.23;;;5.55;;
10343;SDS011;5217;43.960;10.954;2023-07-13T15:49:01;19.30;;;5.40;;
10343;SDS011;5217;43.960;10.954;2023-07-13T15:51:38;15.52;;;5.63;;
10343;SDS011;5217;43.960;10.954;2023-07-13T15:54:08;10.75;;;5.30;;
10343;SDS011;5217;43.960;10.954;2023-07-13T15:56:41;22.48;;;6.78;;
10343;SDS011;5217;43.960;10.954;2023-07-13T15:59:11;20.25;;;5.97;;
10343;SDS011;5217;43.960;10.954;2023-07-13T16:01:40;16.85;;;6.03;;
10343;SDS011;5217;43.960;10.954;2023-07-13T16:04:12;14.73;;;5.82;;
10343;SDS011;5217;43.960;10.954;2023-07-13T16:06:42;19.23;;;6.13;;
10343;SDS011;5217;43.960;10.954;2023-07-13T16:09:13;17.25;;;6.20;;
10343;SDS011;5217;43.960;10.954;2023-07-13T16:11:47;15.82;;;6.25;;
10343;SDS011;5217;43.960;10.954;2023-07-13T16:14:18;17.95;;;5.93;;
10343;SDS011;5217;43.960;10.954;2023-07-13T16:16:51;13.90;;;5.20;;
10343;SDS011;5217;43.960;10.954;2023-07-13T16:19:23;20.50;;;6.45;;
10343;SDS011;5217;43.960;10.954;2023-07-13T16:21:57;22.33;;;6.35;;
10343;SDS011;5217;43.960;10.954;2023-07-13T16:24:27;18.63;;;6.32;;
10343;SDS011;5217;43.960;10.954;2023-07-13T16:26:58;16.45;;;6.18;;
10343;SDS011;5217;43.960;10.954;2023-07-13T16:29:30;18.88;;;6.25;;
10343;SDS011;5217;43.960;10.954;2023-07-13T16:31:59;21.85;;;6.18;;
10343;SDS011;5217;43.960;10.954;2023-07-13T16:34:30;21.00;;;6.97;;
10343;SDS011;5217;43.960;10.954;2023-07-13T16:37:00;15.43;;;5.88;;
10343;SDS011;5217;43.960;10.954;2023-07-13T16:39:31;14.57;;;5.32;;
10343;SDS011;5217;43.960;10.954;2023-07-13T16:42:01;17.20;;;5.63;;
10343;SDS011;5217;43.960;10.954;2023-07-13T16:44:30;13.95;;;5.38;;
10343;SDS011;5217;43.960;10.954;2023-07-13T16:47:00;14.45;;;5.68;;